Time;durP1;ratioP1;P1;durP2;ratioP2;P2;SDS_P1;SDS_P2;PMS_P1;PMS_P2;Temp;Humidity;BMP_temperature;BMP_pressure;BME280_temperature;BME280_humidity;BME280_pressure;Samples;Min_cycle;Max_cycle;Signal;HPM_P1;HPM_P2
2023/03/01 00:01:29;;;;;;;15.00;12.70;;;-0.50;85.60;;;;;;4999758;28;20204;-90
2023/03/01 00:03:56;;;;;;;14.27;12.77;;;-0.50;85.50;;;;;;5017820;28;20267;-90
2023/03/01 00:06:22;;;;;;;15.10;13.60;;;-0.50;85.70;;;;;;5001475;28;20255;-90
2023/03/01 00:08:48;;;;;;;14.37;12.93;;;-0.50;85.60;;;;;;5011814;28;20215;-91
2023/03/01 00:11:20;;;;;;;15.10;13.53;;;-0.50;85.40;;;;;;4998656;28;20178;-89
2023/03/01 00:13:48;;;;;;;14.10;12.83;;;-0.60;85.30;;;;;;5015072;28;20172;-88
2023/03/01 00:16:17;;;;;;;12.47;11.37;;;-0.60;85.10;;;;;;4997421;28;20216;-89
2023/03/01 00:18:43;;;;;;;17.47;12.50;;;-0.70;85.10;;;;;;4997170;28;20185;-89
2023/03/01 00:21:08;;;;;;;13.30;12.10;;;-0.60;85.20;;;;;;5014608;28;20181;-89
2023/03/01 00:23:35;;;;;;;14.43;12.93;;;-0.60;85.10;;;;;;4997454;28;20184;-89
2023/03/01 00:26:01;;;;;;;13.53;12.13;;;-0.60;85.00;;;;;;5014669;28;20201;-89
2023/03/01 00:28:26;;;;;;;14.50;12.00;;;-0.60;85.00;;;;;;4996908;28;20208;-89
2023/03/01 00:30:52;;;;;;;13.23;11.83;;;-0.60;84.80;;;;;;4997450;28;20195;-89
2023/03/01 00:33:19;;;;;;;14.50;13.10;;;-0.60;84.70;;;;;;5014644;28;20289;-89
2023/03/01 00:35:44;;;;;;;13.40;12.20;;;-0.60;84.60;;;;;;4996724;28;20204;-89
2023/03/01 00:38:10;;;;;;;13.23;11.90;;;-0.60;84.50;;;;;;5014431;28;20218;-89
2023/03/01 00:40:36;;;;;;;14.20;12.40;;;-0.70;84.40;;;;;;4997156;28;20238;-89
2023/03/01 00:43:03;;;;;;;17.03;13.53;;;-0.70;84.50;;;;;;5014247;28;20212;-89
2023/03/01 00:45:30;;;;;;;14.10;12.67;;;-0.70;84.50;;;;;;4997202;28;20186;-89
2023/03/01 00:47:56;;;;;;;15.23;13.10;;;-0.70;84.50;;;;;;4996673;28;20652;-89
2023/03/01 00:50:22;;;;;;;12.97;11.63;;;-0.70;84.40;;;;;;5014247;28;20195;-89
2023/03/01 00:52:52;;;;;;;14.37;13.00;;;-0.80;84.30;;;;;;5014063;28;20169;-89
2023/03/01 00:55:18;;;;;;;14.93;12.00;;;-0.80;84.20;;;;;;5014085;28;20245;-89
2023/03/01 00:57:43;;;;;;;12.70;11.27;;;-0.80;84.10;;;;;;4996689;28;20640;-89
2023/03/01 01:00:11;;;;;;;15.13;13.63;;;-0.80;84.00;;;;;;4996962;28;20178;-89
2023/03/01 01:02:37;;;;;;;12.40;11.30;;;-0.80;83.90;;;;;;4996582;28;20180;-89
2023/03/01 01:05:06;;;;;;;14.60;12.43;;;-0.90;83.70;;;;;;4996585;28;20182;-89
2023/03/01 01:07:32;;;;;;;16.87;13.77;;;-1.00;84.10;;;;;;4996295;28;20205;-89
2023/03/01 01:09:58;;;;;;;14.30;12.90;;;-0.90;84.30;;;;;;4996380;28;20174;-89
2023/03/01 01:12:23;;;;;;;14.43;13.13;;;-0.90;84.20;;;;;;4996658;28;20171;-89
2023/03/01 01:14:49;;;;;;;14.73;13.30;;;-0.90;84.20;;;;;;4996102;28;20202;-89
2023/03/01 01:17:15;;;;;;;14.40;12.93;;;-0.90;84.30;;;;;;5013675;28;20207;-89
2023/03/01 01:19:40;;;;;;;14.50;13.03;;;-1.00;84.40;;;;;;4996094;28;20606;-89
2023/03/01 01:22:06;;;;;;;15.83;12.90;;;-0.90;84.40;;;;;;5017939;28;20169;-90
2023/03/01 01:24:31;;;;;;;13.83;12.43;;;-0.90;84.30;;;;;;5002630;28;20663;-90
2023/03/01 01:26:57;;;;;;;16.33;13.13;;;-0.90;84.30;;;;;;5020490;28;20191;-89
2023/03/01 01:29:22;;;;;;;14.57;13.07;;;-0.90;84.60;;;;;;5003144;28;20281;-88
2023/03/01 01:31:48;;;;;;;17.33;12.90;;;-0.90;84.70;;;;;;5014165;28;20228;-90
2023/03/01 01:34:16;;;;;;;15.03;12.50;;;-1.00;84.70;;;;;;4996328;28;20246;-90
2023/03/01 01:36:42;;;;;;;16.80;12.87;;;-1.00;84.50;;;;;;5013383;28;20199;-90
2023/03/01 01:39:12;;;;;;;12.73;11.53;;;-1.00;84.40;;;;;;5013541;28;20256;-90
2023/03/01 01:41:39;;;;;;;15.03;12.63;;;-1.00;84.30;;;;;;4996327;28;20521;-91
2023/03/01 01:44:23;;;;;;;13.37;12.07;;;-1.10;84.30;;;;;;5013692;28;20177;-89
2023/03/01 01:47:12;;;;;;;13.40;12.00;;;-1.10;84.20;;;;;;4998693;28;20292;-88
2023/03/01 01:49:43;;;;;;;12.23;11.03;;;-1.10;84.20;;;;;;5017757;28;20166;-88
2023/03/01 01:52:17;;;;;;;13.27;12.10;;;-1.20;84.10;;;;;;4999869;28;20170;-88
2023/03/01 01:55:10;;;;;;;13.90;11.90;;;-1.20;84.00;;;;;;4999835;28;20549;-88
2023/03/01 01:57:38;;;;;;;13.67;12.53;;;-1.20;83.90;;;;;;5017243;28;20194;-88
2023/03/01 02:00:20;;;;;;;15.33;13.83;;;-1.10;83.80;;;;;;5017140;28;20184;-88
2023/03/01 02:02:51;;;;;;;14.80;13.33;;;-1.20;83.70;;;;;;5000033;28;20672;-88
2023/03/01 02:05:46;;;;;;;14.20;12.73;;;-1.20;84.00;;;;;;4999532;28;20632;-88
2023/03/01 02:08:14;;;;;;;13.37;12.03;;;-1.20;84.00;;;;;;4999405;28;20295;-88
2023/03/01 02:10:41;;;;;;;14.20;12.80;;;-1.30;84.00;;;;;;4999311;28;20661;-88
2023/03/01 02:13:07;;;;;;;16.47;12.77;;;-1.30;84.00;;;;;;4999464;28;20220;-88
2023/03/01 02:15:38;;;;;;;13.30;12.00;;;-1.40;83.90;;;;;;4999400;28;20221;-88
2023/03/01 02:18:05;;;;;;;14.53;12.53;;;-1.40;84.00;;;;;;4999432;28;20187;-89
2023/03/01 02:20:55;;;;;;;18.93;13.33;;;-1.40;84.10;;;;;;4999306;28;20671;-88
2023/03/01 02:23:21;;;;;;;19.03;14.40;;;-1.50;84.20;;;;;;4982500;28;20182;-88
2023/03/01 02:25:57;;;;;;;15.20;13.60;;;-1.50;84.50;;;;;;4999401;28;20185;-88
2023/03/01 02:28:24;;;;;;;15.00;13.43;;;-1.50;84.50;;;;;;5016815;28;20610;-88
2023/03/01 02:33:37;;;;;;;15.50;13.80;;;-1.50;84.70;;;;;;5017429;28;20670;-88
2023/03/01 02:36:28;;;;;;;19.10;13.37;;;-1.50;84.70;;;;;;4999185;28;20205;-88
2023/03/01 02:38:57;;;;;;;16.20;13.23;;;-1.50;84.60;;;;;;4987668;28;20193;-88
2023/03/01 02:41:24;;;;;;;13.43;12.13;;;-1.50;84.50;;;;;;5016286;28;20260;-88
2023/03/01 02:43:50;;;;;;;14.10;12.60;;;-1.50;84.60;;;;;;4998919;28;20544;-88
2023/03/01 02:46:19;;;;;;;13.07;11.83;;;-1.50;85.20;;;;;;4999447;28;20203;-89
2023/03/01 02:48:51;;;;;;;15.97;13.40;;;-1.50;85.40;;;;;;5016310;28;20249;-89
2023/03/01 02:51:31;;;;;;;14.90;12.30;;;-1.50;85.50;;;;;;4998872;28;20613;-88
2023/03/01 02:54:14;;;;;;;14.30;12.80;;;-1.50;85.60;;;;;;4999325;28;20166;-88
2023/03/01 02:56:40;;;;;;;12.77;11.43;;;-1.60;85.70;;;;;;4998324;28;20196;-90
2023/03/01 02:59:07;;;;;;;15.63;12.43;;;-1.50;86.00;;;;;;5015412;28;20590;-89
2023/03/01 03:01:38;;;;;;;14.77;13.00;;;-1.50;86.10;;;;;;4998834;28;20186;-90
2023/03/01 03:04:09;;;;;;;15.17;12.03;;;-1.50;86.00;;;;;;4998407;28;20691;-90
2023/03/01 03:06:35;;;;;;;17.17;12.20;;;-1.50;85.80;;;;;;4998481;28;20198;-89
2023/03/01 03:09:01;;;;;;;15.13;12.03;;;-1.60;85.60;;;;;;4998274;28;20238;-90
2023/03/01 03:11:27;;;;;;;14.67;13.10;;;-1.60;85.90;;;;;;4998313;28;20205;-89
2023/03/01 03:13:52;;;;;;;14.13;12.47;;;-1.60;86.50;;;;;;5016175;28;20197;-90
2023/03/01 03:16:19;;;;;;;16.13;12.30;;;-1.60;86.90;;;;;;4998103;28;20687;-90
2023/03/01 03:18:45;;;;;;;17.10;12.57;;;-1.70;87.30;;;;;;4998244;28;20181;-90
2023/03/01 03:21:12;;;;;;;17.33;11.77;;;-1.70;87.60;;;;;;4998215;28;20558;-89
2023/03/01 03:23:38;;;;;;;17.33;12.47;;;-1.70;87.90;;;;;;4998119;28;20177;-88
2023/03/01 03:26:05;;;;;;;20.63;12.27;;;-1.60;88.30;;;;;;4997937;28;20254;-90
2023/03/01 03:28:32;;;;;;;13.00;11.70;;;-1.60;88.50;;;;;;4997899;28;20705;-89
2023/03/01 03:30:58;;;;;;;16.60;14.30;;;-1.60;88.60;;;;;;4998007;28;20215;-90
2023/03/01 03:33:24;;;;;;;14.67;11.87;;;-1.50;88.60;;;;;;5015543;28;20192;-90
2023/03/01 03:35:50;;;;;;;14.83;12.07;;;-1.50;88.50;;;;;;4997945;28;20659;-90
2023/03/01 03:38:19;;;;;;;15.77;11.93;;;-1.60;88.40;;;;;;4998633;28;20662;-90
2023/03/01 03:40:47;;;;;;;15.83;10.87;;;-1.60;88.30;;;;;;4997861;28;20327;-89
2023/03/01 03:43:24;;;;;;;12.90;11.60;;;-1.60;88.20;;;;;;4997718;28;20185;-89
2023/03/01 03:45:50;;;;;;;15.60;11.40;;;-1.60;88.20;;;;;;4997572;28;20643;-89
2023/03/01 03:48:16;;;;;;;13.30;11.50;;;-1.60;88.00;;;;;;5015194;28;20197;-89
2023/03/01 03:50:48;;;;;;;16.57;11.73;;;-1.70;88.00;;;;;;4997674;28;20252;-89
2023/03/01 03:53:13;;;;;;;14.13;11.83;;;-1.70;88.00;;;;;;5015068;28;20671;-89
2023/03/01 03:55:39;;;;;;;13.93;11.93;;;-1.60;88.20;;;;;;4997806;28;20173;-90
2023/03/01 03:58:07;;;;;;;12.80;11.50;;;-1.60;88.10;;;;;;4997552;28;20181;-89
2023/03/01 04:00:38;;;;;;;16.63;12.00;;;-1.60;88.20;;;;;;4997484;28;20185;-89
2023/03/01 04:03:03;;;;;;;11.87;10.33;;;-1.60;88.30;;;;;;4997465;28;20182;-89
2023/03/01 04:05:29;;;;;;;13.03;10.33;;;-1.70;88.10;;;;;;4997370;28;20188;-89
2023/03/01 04:08:02;;;;;;;13.80;11.53;;;-1.70;88.10;;;;;;4997232;28;20304;-89
2023/03/01 04:10:29;;;;;;;11.80;10.43;;;-1.70;88.00;;;;;;5014831;28;20161;-89
2023/03/01 04:12:57;;;;;;;12.10;10.90;;;-1.80;87.90;;;;;;4997610;28;20185;-89
2023/03/01 04:15:25;;;;;;;12.67;10.70;;;-1.80;87.90;;;;;;5014617;28;20667;-89
2023/03/01 04:17:54;;;;;;;15.07;11.23;;;-1.80;87.80;;;;;;5014418;28;20243;-89
2023/03/01 04:20:29;;;;;;;12.60;11.03;;;-1.70;87.70;;;;;;4997128;28;20220;-89
2023/03/01 04:23:13;;;;;;;13.07;10.60;;;-1.80;87.50;;;;;;4997065;28;20200;-89
2023/03/01 04:25:59;;;;;;;13.20;11.33;;;-1.80;87.50;;;;;;4996995;28;20549;-89
2023/03/01 04:28:36;;;;;;;13.13;11.77;;;-1.70;87.70;;;;;;5014341;28;20631;-89
2023/03/01 04:31:12;;;;;;;12.90;10.53;;;-1.70;87.70;;;;;;4997682;28;20264;-89
2023/03/01 04:33:42;;;;;;;14.53;11.00;;;-1.70;87.60;;;;;;4996863;28;20192;-89
2023/03/01 04:36:08;;;;;;;15.10;11.27;;;-1.70;87.50;;;;;;5014349;28;20239;-89
2023/03/01 04:38:36;;;;;;;12.27;10.57;;;-1.80;87.70;;;;;;4996714;28;20181;-89
2023/03/01 04:41:03;;;;;;;15.97;10.37;;;-1.80;87.80;;;;;;4996991;28;20269;-89
2023/03/01 04:43:29;;;;;;;11.30;10.13;;;-1.80;87.80;;;;;;5014246;28;20747;-89
2023/03/01 04:45:59;;;;;;;11.13;9.93;;;-1.80;87.80;;;;;;5014441;28;20297;-89
2023/03/01 04:48:24;;;;;;;15.53;10.90;;;-1.80;87.80;;;;;;4997212;28;20204;-89
2023/03/01 04:50:50;;;;;;;12.30;11.10;;;-1.80;87.80;;;;;;4996685;28;20180;-89
2023/03/01 04:53:15;;;;;;;11.83;10.53;;;-1.80;87.70;;;;;;4996538;28;20173;-89
2023/03/01 04:55:41;;;;;;;14.43;10.83;;;-1.80;87.40;;;;;;4996694;28;20231;-89
2023/03/01 04:58:06;;;;;;;12.00;10.90;;;-1.80;87.40;;;;;;4996442;28;20177;-89
2023/03/01 05:00:32;;;;;;;14.47;11.37;;;-1.80;87.40;;;;;;4996381;28;20181;-88
2023/03/01 05:03:00;;;;;;;13.07;11.67;;;-1.80;87.10;;;;;;4996334;28;20182;-89
2023/03/01 05:05:31;;;;;;;14.50;12.03;;;-1.80;87.00;;;;;;4996372;28;20191;-89
2023/03/01 05:08:00;;;;;;;13.37;12.10;;;-1.90;87.00;;;;;;5013702;28;20263;-89
2023/03/01 05:10:28;;;;;;;13.47;12.10;;;-1.90;87.00;;;;;;4996295;28;20173;-89
2023/03/01 05:12:54;;;;;;;13.30;11.90;;;-1.90;87.00;;;;;;5013787;28;20182;-89
2023/03/01 05:15:25;;;;;;;14.03;11.47;;;-1.80;87.00;;;;;;4996373;28;20199;-89
2023/03/01 05:17:51;;;;;;;13.47;12.07;;;-1.80;87.00;;;;;;4996160;28;20259;-89
2023/03/01 05:20:17;;;;;;;13.30;11.57;;;-1.80;87.10;;;;;;4995695;28;20177;-89
2023/03/01 05:22:43;;;;;;;12.37;11.07;;;-1.70;87.20;;;;;;4996069;28;20607;-89
2023/03/01 05:25:09;;;;;;;12.40;11.10;;;-1.70;87.20;;;;;;4995980;28;20320;-89
2023/03/01 05:27:35;;;;;;;12.60;11.30;;;-1.60;87.10;;;;;;4995899;28;20263;-89
2023/03/01 05:30:13;;;;;;;13.20;10.27;;;-1.60;87.10;;;;;;4995903;28;20209;-89
2023/03/01 05:32:43;;;;;;;11.43;10.17;;;-1.60;87.00;;;;;;4996269;28;20162;-89
2023/03/01 05:35:13;;;;;;;13.73;10.53;;;-1.60;87.10;;;;;;4995966;28;20167;-89
2023/03/01 05:37:45;;;;;;;11.27;10.20;;;-1.60;87.10;;;;;;4996316;28;20672;-89
2023/03/01 05:40:16;;;;;;;12.60;11.30;;;-1.60;87.20;;;;;;5013554;28;20266;-89
2023/03/01 05:43:04;;;;;;;12.80;11.37;;;-1.50;87.30;;;;;;4995960;28;20256;-89
2023/03/01 05:45:32;;;;;;;13.00;11.70;;;-1.40;87.30;;;;;;4995992;28;20185;-89
2023/03/01 05:47:58;;;;;;;15.27;12.10;;;-1.30;87.40;;;;;;4995679;28;20297;-89
2023/03/01 05:50:26;;;;;;;14.13;12.13;;;-1.30;87.40;;;;;;4995833;28;20239;-89
2023/03/01 05:52:57;;;;;;;14.47;12.00;;;-1.30;87.40;;;;;;4996161;28;20181;-90
2023/03/01 05:55:22;;;;;;;14.40;12.30;;;-1.30;87.40;;;;;;5013347;28;20158;-89
2023/03/01 05:57:52;;;;;;;20.33;17.23;;;-1.30;87.40;;;;;;4995938;28;20238;-89
2023/03/01 06:00:19;;;;;;;20.00;17.77;;;-1.10;87.40;;;;;;4995655;28;20224;-88
2023/03/01 06:02:45;;;;;;;15.77;14.00;;;-1.10;87.30;;;;;;4995600;28;20186;-88
2023/03/01 06:05:12;;;;;;;16.10;12.83;;;-1.00;87.30;;;;;;5013229;28;20258;-89
2023/03/01 06:07:38;;;;;;;16.40;14.77;;;-1.10;87.40;;;;;;4995514;28;20215;-89
2023/03/01 06:10:05;;;;;;;17.47;13.93;;;-1.10;87.40;;;;;;4996464;28;20189;-88
2023/03/01 06:12:32;;;;;;;17.23;12.97;;;-1.10;87.50;;;;;;4996182;28;20201;-88
2023/03/01 06:14:58;;;;;;;14.20;12.80;;;-1.10;87.50;;;;;;4995758;28;20197;-88
2023/03/01 06:17:24;;;;;;;14.73;11.87;;;-1.10;87.60;;;;;;4995570;28;20693;-89
2023/03/01 06:19:49;;;;;;;13.73;12.37;;;-1.10;87.60;;;;;;4995694;28;20178;-88
2023/03/01 06:22:15;;;;;;;13.03;11.73;;;-1.10;87.70;;;;;;5013033;28;20256;-88
2023/03/01 06:24:40;;;;;;;14.00;12.53;;;-1.00;87.90;;;;;;4995508;28;20177;-89
2023/03/01 06:27:06;;;;;;;16.33;14.67;;;-1.00;87.90;;;;;;4995390;28;20570;-88
2023/03/01 06:29:31;;;;;;;18.33;14.60;;;-0.90;88.00;;;;;;4995434;28;20559;-89
2023/03/01 06:31:57;;;;;;;19.53;17.40;;;-1.00;88.10;;;;;;4995452;28;20173;-88
2023/03/01 06:34:22;;;;;;;20.43;17.53;;;-0.90;88.20;;;;;;4998749;28;20554;-88
2023/03/01 06:36:48;;;;;;;22.13;17.83;;;-1.00;88.40;;;;;;4998926;28;20198;-89
2023/03/01 06:39:13;;;;;;;18.40;16.50;;;-1.00;88.40;;;;;;5016653;28;20182;-89
2023/03/01 06:41:39;;;;;;;21.80;18.00;;;-1.10;88.50;;;;;;4999262;28;20698;-89
2023/03/01 06:44:04;;;;;;;24.17;19.43;;;-1.00;88.60;;;;;;4998938;28;20636;-89
2023/03/01 06:46:30;;;;;;;21.33;19.03;;;-0.90;88.70;;;;;;4998747;28;20231;-89
2023/03/01 06:48:56;;;;;;;26.97;19.50;;;-0.80;88.80;;;;;;4999591;28;20667;-89
2023/03/01 06:51:21;;;;;;;24.87;21.23;;;-0.80;88.70;;;;;;5016279;28;20224;-89
2023/03/01 06:53:47;;;;;;;26.57;23.10;;;-0.90;88.70;;;;;;4999033;28;20195;-89
2023/03/01 06:56:12;;;;;;;25.30;22.47;;;-0.80;88.90;;;;;;4998579;28;20203;-89
2023/03/01 06:58:38;;;;;;;25.10;22.37;;;-0.80;89.00;;;;;;5016144;28;20177;-89
2023/03/01 07:01:08;;;;;;;26.73;22.50;;;-0.70;89.00;;;;;;4998704;28;20187;-89
2023/03/01 07:03:33;;;;;;;29.60;22.40;;;-0.70;89.10;;;;;;4998565;28;20360;-89
2023/03/01 07:05:59;;;;;;;25.70;22.50;;;-0.70;89.20;;;;;;4998364;28;20301;-89
2023/03/01 07:08:24;;;;;;;25.53;22.03;;;-0.70;89.30;;;;;;4998366;28;20257;-89
2023/03/01 07:10:55;;;;;;;26.33;21.80;;;-0.60;89.40;;;;;;5016111;28;20167;-89
2023/03/01 07:13:21;;;;;;;25.87;23.07;;;-0.60;89.50;;;;;;4998411;28;20171;-89
2023/03/01 07:15:46;;;;;;;32.40;25.60;;;-0.60;89.50;;;;;;4998152;28;20284;-89
2023/03/01 07:18:12;;;;;;;30.03;24.27;;;-0.60;89.70;;;;;;4998559;28;20285;-89
2023/03/01 07:20:37;;;;;;;65.00;25.57;;;-0.50;89.80;;;;;;4998135;28;20187;-89
2023/03/01 07:23:05;;;;;;;28.33;24.20;;;-0.50;89.90;;;;;;4998230;28;20190;-89
2023/03/01 07:25:30;;;;;;;56.07;22.83;;;-0.50;90.00;;;;;;4998044;28;20564;-89
2023/03/01 07:27:56;;;;;;;32.30;22.97;;;-0.50;90.20;;;;;;4999006;28;20212;-89
2023/03/01 07:30:25;;;;;;;35.53;25.00;;;-0.50;90.40;;;;;;4998018;28;20588;-89
2023/03/01 07:32:51;;;;;;;34.90;24.90;;;-0.40;90.60;;;;;;4997865;28;20704;-89
2023/03/01 07:35:16;;;;;;;25.83;22.43;;;-0.30;90.70;;;;;;4998066;28;20317;-89
2023/03/01 07:37:42;;;;;;;30.67;24.10;;;-0.30;90.70;;;;;;4998191;28;20293;-89
2023/03/01 07:40:11;;;;;;;28.53;20.53;;;-0.20;90.90;;;;;;4998301;28;20552;-90
2023/03/01 07:42:37;;;;;;;23.83;19.07;;;0.00;90.90;;;;;;4997758;28;20225;-89
2023/03/01 07:45:04;;;;;;;27.23;21.40;;;-0.10;90.90;;;;;;4998096;28;20210;-89
2023/03/01 07:47:29;;;;;;;34.87;25.87;;;-0.10;90.90;;;;;;4998185;28;20738;-90
2023/03/01 07:49:55;;;;;;;26.50;21.37;;;-0.10;91.00;;;;;;4997762;28;20207;-89
2023/03/01 07:52:20;;;;;;;24.83;19.50;;;0.00;91.10;;;;;;4997637;28;20266;-89
2023/03/01 07:54:46;;;;;;;23.90;18.47;;;0.00;91.10;;;;;;5015159;28;20177;-89
2023/03/01 07:57:11;;;;;;;28.80;19.47;;;0.00;91.10;;;;;;4997896;28;20198;-89
2023/03/01 07:59:37;;;;;;;26.47;18.87;;;0.10;91.20;;;;;;4997516;28;20180;-89
2023/03/01 08:02:02;;;;;;;24.67;18.77;;;0.20;91.20;;;;;;4997516;28;20185;-89
2023/03/01 08:04:28;;;;;;;26.40;19.60;;;0.20;91.20;;;;;;4997910;28;20622;-89
2023/03/01 08:06:57;;;;;;;34.27;20.43;;;0.20;91.30;;;;;;4997268;28;20202;-89
2023/03/01 08:09:22;;;;;;;24.17;19.00;;;0.30;91.30;;;;;;4997783;28;20215;-89
2023/03/01 08:11:48;;;;;;;24.33;20.10;;;0.30;91.30;;;;;;4997363;28;20238;-89
2023/03/01 08:14:13;;;;;;;29.70;20.90;;;0.40;91.50;;;;;;4997757;28;20588;-89
2023/03/01 08:16:39;;;;;;;36.73;21.17;;;0.40;91.40;;;;;;4997169;28;20204;-89
2023/03/01 08:19:06;;;;;;;75.23;24.77;;;0.40;91.50;;;;;;4997118;28;20314;-89
2023/03/01 08:21:34;;;;;;;30.57;21.73;;;0.50;91.50;;;;;;4996929;28;20185;-89
2023/03/01 08:24:00;;;;;;;32.33;21.53;;;0.60;91.70;;;;;;4997400;28;20271;-89
2023/03/01 08:26:26;;;;;;;30.73;22.87;;;0.60;91.60;;;;;;5014586;28;20319;-90
2023/03/01 08:28:51;;;;;;;50.37;20.70;;;0.70;91.70;;;;;;4996904;28;20287;-89
2023/03/01 08:31:22;;;;;;;30.57;22.33;;;0.80;91.80;;;;;;4997634;28;20252;-89
2023/03/01 08:33:50;;;;;;;86.40;22.50;;;0.80;91.90;;;;;;4997609;28;20173;-88
2023/03/01 08:36:16;;;;;;;51.73;22.33;;;1.00;92.00;;;;;;5014561;28;20243;-89
2023/03/01 08:38:41;;;;;;;66.77;22.43;;;1.00;91.90;;;;;;4996801;28;20574;-89
2023/03/01 08:41:07;;;;;;;86.97;22.43;;;1.00;92.00;;;;;;4996688;28;20183;-89
2023/03/01 08:43:33;;;;;;;36.30;22.17;;;1.10;92.20;;;;;;5014239;28;20188;-87
2023/03/01 08:45:58;;;;;;;62.27;20.73;;;1.20;92.30;;;;;;5014384;28;20726;-87
2023/03/01 08:48:27;;;;;;;33.57;19.47;;;1.30;92.30;;;;;;5014115;28;20679;-88
2023/03/01 08:50:52;;;;;;;82.80;20.37;;;1.30;92.40;;;;;;4996414;28;20184;-87
2023/03/01 08:53:18;;;;;;;32.10;20.77;;;1.40;92.50;;;;;;4996617;28;20166;-87
2023/03/01 08:55:43;;;;;;;32.57;19.40;;;1.40;92.50;;;;;;4995878;28;20243;-89
2023/03/01 08:58:09;;;;;;;31.90;21.27;;;1.50;92.60;;;;;;5014045;28;20181;-89
2023/03/01 09:00:35;;;;;;;65.37;22.03;;;1.50;92.60;;;;;;4996455;28;20181;-89
2023/03/01 09:03:00;;;;;;;32.50;20.93;;;1.60;92.70;;;;;;4996435;28;20177;-89
2023/03/01 09:05:26;;;;;;;99.23;23.23;;;1.70;92.70;;;;;;4996266;28;20560;-89
2023/03/01 09:07:52;;;;;;;34.50;23.60;;;1.80;92.80;;;;;;5013783;28;20580;-89
2023/03/01 09:10:18;;;;;;;33.67;22.57;;;1.80;92.80;;;;;;5014081;28;20185;-89
2023/03/01 09:12:43;;;;;;;80.43;22.73;;;1.90;92.80;;;;;;5013862;28;20641;-89
2023/03/01 09:15:09;;;;;;;34.93;22.97;;;1.90;92.80;;;;;;4996274;28;20283;-89
2023/03/01 09:17:35;;;;;;;42.17;22.50;;;1.90;92.80;;;;;;5013611;28;20203;-89
2023/03/01 09:20:01;;;;;;;67.10;21.00;;;1.90;92.90;;;;;;5013813;28;20552;-89
2023/03/01 09:22:26;;;;;;;28.63;20.50;;;2.00;92.90;;;;;;4996088;28;20188;-89
2023/03/01 09:24:52;;;;;;;66.97;20.83;;;2.00;92.90;;;;;;4996133;28;20268;-90
2023/03/01 09:27:19;;;;;;;30.20;20.27;;;2.10;93.00;;;;;;4995817;28;20197;-88
2023/03/01 09:29:45;;;;;;;34.07;21.03;;;2.30;93.00;;;;;;5013914;28;20168;-88
2023/03/01 09:32:10;;;;;;;30.13;21.13;;;2.30;92.90;;;;;;4996068;28;20173;-89
2023/03/01 09:35:00;;;;;;;39.33;23.83;;;2.30;93.00;;;;;;4996292;28;20174;-88
2023/03/01 09:37:21;;;;;;;39.30;28.77;;;2.30;92.90;;;;;;5013921;28;20744;-90
2023/03/01 09:39:47;;;;;;;49.57;27.47;;;2.40;93.00;;;;;;5013719;28;20260;-90
2023/03/01 09:42:13;;;;;;;89.60;26.40;;;2.50;93.00;;;;;;4996506;28;20643;-90
2023/03/01 09:45:00;;;;;;;48.47;26.00;;;2.50;93.00;;;;;;4995916;28;20185;-88
2023/03/01 09:47:32;;;;;;;37.83;25.40;;;2.50;93.00;;;;;;5013512;28;20671;-88
2023/03/01 09:50:09;;;;;;;43.83;24.20;;;2.60;93.10;;;;;;5013752;28;20218;-88
2023/03/01 09:52:45;;;;;;;38.20;26.07;;;2.70;93.00;;;;;;5013445;28;20158;-88
2023/03/01 09:55:25;;;;;;;52.97;24.43;;;2.80;93.10;;;;;;4996794;28;20171;-88
2023/03/01 09:57:58;;;;;;;33.87;23.80;;;2.80;93.10;;;;;;5013368;28;20346;-89
2023/03/01 10:00:39;;;;;;;37.20;23.87;;;2.90;93.10;;;;;;5013400;28;20181;-90
2023/03/01 10:03:16;;;;;;;39.83;24.53;;;3.00;93.20;;;;;;5013785;28;20526;-90
2023/03/01 10:05:48;;;;;;;44.17;26.37;;;3.00;93.20;;;;;;4996356;28;20313;-90
2023/03/01 10:08:35;;;;;;;47.30;23.97;;;3.00;93.10;;;;;;5016854;28;20212;-90
2023/03/01 10:11:01;;;;;;;43.77;26.13;;;3.00;93.10;;;;;;4999746;28;20206;-89
2023/03/01 10:13:27;;;;;;;37.17;23.93;;;3.10;93.10;;;;;;4999794;28;20190;-89
2023/03/01 10:15:58;;;;;;;35.57;25.17;;;3.10;93.00;;;;;;5017253;28;20197;-89
2023/03/01 10:18:31;;;;;;;45.20;26.00;;;3.00;92.90;;;;;;5017361;28;20158;-89
2023/03/01 10:21:02;;;;;;;39.10;25.40;;;3.00;92.90;;;;;;5017259;28;20181;-87
2023/03/01 10:23:31;;;;;;;41.40;27.13;;;3.10;93.00;;;;;;4999321;28;20656;-87
2023/03/01 10:25:59;;;;;;;47.80;28.40;;;3.20;93.00;;;;;;4999351;28;20220;-87
2023/03/01 10:28:36;;;;;;;51.60;30.10;;;3.10;93.00;;;;;;4999405;28;20675;-90
2023/03/01 10:31:03;;;;;;;44.73;26.53;;;3.20;93.00;;;;;;4999500;28;20176;-90
2023/03/01 10:33:37;;;;;;;49.37;29.20;;;3.20;93.10;;;;;;4999247;28;20183;-89
2023/03/01 10:36:02;;;;;;;52.30;28.43;;;3.30;93.20;;;;;;4999135;28;20197;-90
2023/03/01 10:38:46;;;;;;;46.43;29.93;;;3.30;93.10;;;;;;4999158;28;20232;-88
2023/03/01 10:41:11;;;;;;;52.27;28.93;;;3.30;93.10;;;;;;4999794;28;20179;-88
2023/03/01 10:43:49;;;;;;;48.70;29.10;;;3.30;93.10;;;;;;4999711;28;20187;-88
2023/03/01 10:46:34;;;;;;;50.13;29.53;;;3.30;93.00;;;;;;5016398;28;20674;-88
2023/03/01 10:49:15;;;;;;;46.70;29.57;;;3.40;93.00;;;;;;4999213;28;20206;-90
2023/03/01 10:51:44;;;;;;;52.37;30.80;;;3.40;93.00;;;;;;5016785;28;20236;-89
2023/03/01 10:54:21;;;;;;;50.20;29.83;;;3.40;92.90;;;;;;4998882;28;20268;-89
2023/03/01 10:56:50;;;;;;;53.60;31.17;;;3.30;92.90;;;;;;4998683;28;20200;-88
2023/03/01 10:59:31;;;;;;;51.50;29.83;;;3.40;92.90;;;;;;5016179;28;20185;-88
2023/03/01 11:02:09;;;;;;;59.83;32.93;;;3.50;93.00;;;;;;4998671;28;20179;-89
2023/03/01 11:04:35;;;;;;;56.60;32.57;;;3.60;93.00;;;;;;5016690;28;20180;-89
2023/03/01 11:07:02;;;;;;;55.73;33.43;;;3.70;93.00;;;;;;5016001;28;20190;-89
2023/03/01 11:09:38;;;;;;;60.20;34.13;;;3.80;93.00;;;;;;4998345;28;20202;-89
2023/03/01 11:12:12;;;;;;;68.60;34.97;;;3.80;93.00;;;;;;4998626;28;20645;-89
2023/03/01 11:14:45;;;;;;;58.20;34.77;;;3.80;92.90;;;;;;4998982;28;20188;-88
2023/03/01 11:17:16;;;;;;;61.27;33.57;;;3.80;92.80;;;;;;5015973;28;20198;-89
2023/03/01 11:19:42;;;;;;;64.10;34.63;;;4.00;92.80;;;;;;5015578;28;20568;-89
2023/03/01 11:22:12;;;;;;;70.57;34.87;;;4.00;92.70;;;;;;5015760;28;20204;-89
2023/03/01 11:24:49;;;;;;;64.67;32.97;;;3.90;92.50;;;;;;5015768;28;20166;-88
2023/03/01 11:27:14;;;;;;;54.07;32.37;;;4.00;92.50;;;;;;4998141;28;20193;-89
2023/03/01 11:29:46;;;;;;;59.50;34.43;;;4.00;92.40;;;;;;4998031;28;20257;-90
2023/03/01 11:32:14;;;;;;;68.30;35.90;;;4.00;92.20;;;;;;5015923;28;20160;-89
2023/03/01 11:34:59;;;;;;;63.93;33.37;;;4.10;92.30;;;;;;5015553;28;20185;-88
2023/03/01 11:37:51;;;;;;;62.27;36.60;;;4.20;92.10;;;;;;5015607;28;20196;-88
2023/03/01 11:40:21;;;;;;;76.50;34.93;;;4.20;92.00;;;;;;4997980;28;20195;-88
2023/03/01 11:43:01;;;;;;;57.23;35.70;;;4.10;91.70;;;;;;4997828;28;20591;-89
2023/03/01 11:45:31;;;;;;;57.73;35.83;;;4.20;91.80;;;;;;4997951;28;20181;-87
2023/03/01 11:48:25;;;;;;;62.80;37.37;;;4.20;91.60;;;;;;4997955;28;20214;-89
2023/03/01 11:50:54;;;;;;;62.97;37.90;;;4.20;91.50;;;;;;4998166;28;20666;-89
2023/03/01 11:53:19;;;;;;;60.53;36.87;;;4.20;91.50;;;;;;5015479;28;20172;-89
2023/03/01 11:56:07;;;;;;;58.30;38.40;;;4.20;91.30;;;;;;4997727;28;20172;-88
2023/03/01 11:59:04;;;;;;;57.77;36.97;;;4.30;91.30;;;;;;5015372;28;20168;-88
2023/03/01 12:01:48;;;;;;;59.30;37.93;;;4.30;91.20;;;;;;4997605;28;20266;-87
2023/03/01 12:04:53;;;;;;;60.47;36.60;;;4.30;91.00;;;;;;4997686;28;20176;-88
2023/03/01 12:07:24;;;;;;;63.03;36.67;;;4.20;90.90;;;;;;4997412;28;20194;-88
2023/03/01 12:10:14;;;;;;;59.67;36.63;;;4.00;90.80;;;;;;4997876;28;20618;-88
2023/03/01 12:13:12;;;;;;;63.53;37.43;;;4.20;91.10;;;;;;4997550;28;20172;-87
2023/03/01 12:16:21;;;;;;;61.63;37.57;;;4.20;91.20;;;;;;4997006;28;20242;-87
2023/03/01 12:18:56;;;;;;;70.37;36.43;;;4.30;91.10;;;;;;5015173;28;20184;-87
2023/03/01 12:21:43;;;;;;;60.80;37.77;;;4.50;91.20;;;;;;4997190;28;20275;-88
2023/03/01 12:24:52;;;;;;;58.07;35.10;;;4.60;90.90;;;;;;4997227;28;20184;-87
2023/03/01 12:27:34;;;;;;;58.50;36.13;;;4.50;90.60;;;;;;4976351;28;20571;-86
2023/03/01 12:30:13;;;;;;;61.57;36.13;;;4.50;90.60;;;;;;4996975;28;20187;-88
2023/03/01 12:32:53;;;;;;;57.03;35.37;;;4.40;90.30;;;;;;4997160;28;20172;-86
2023/03/01 12:35:35;;;;;;;58.70;34.13;;;4.50;90.50;;;;;;5014436;28;20160;-88
2023/03/01 12:38:28;;;;;;;51.43;33.63;;;4.50;90.50;;;;;;5001780;28;20176;-87
2023/03/01 12:40:54;;;;;;;50.70;32.53;;;4.60;90.60;;;;;;5019850;28;20168;-86
2023/03/01 12:43:33;;;;;;;50.77;33.00;;;4.60;90.60;;;;;;5018308;28;20180;-87
2023/03/01 12:46:34;;;;;;;47.30;31.20;;;4.80;90.70;;;;;;4997009;28;20208;-86
2023/03/01 12:49:15;;;;;;;45.47;28.80;;;4.80;90.40;;;;;;4977237;28;20222;-88